Time;durP1;ratioP1;P1;durP2;ratioP2;P2;SDS_P1;SDS_P2;PMS_P1;PMS_P2;Temp;Humidity;BMP_temperature;BMP_pressure;BME280_temperature;BME280_humidity;BME280_pressure;Samples;Min_cycle;Max_cycle;Signal;HPM_P1;HPM_P2
2023/07/03 00:01:21;;;;;;;;;;;;;;;24.03;67.75;100202.09;7401783;19;1810;-53
2023/07/03 00:03:51;;;;;;;;;;;;;;;24.02;67.78;100200.44;7400567;19;1860;-53
2023/07/03 00:06:19;;;;;;;;;;;;;;;24.06;67.69;100200.91;7400312;19;1853;-53
2023/07/03 00:08:48;;;;;;;;;;;;;;;24.04;67.70;100203.78;7402740;19;1813;-53
2023/07/03 00:11:16;;;;;;;;;;;;;;;24.11;67.77;100209.28;7403047;19;1402;-53
2023/07/03 00:13:47;;;;;;;;;;;;;;;24.12;67.58;100209.13;7402896;19;1398;-53
2023/07/03 00:16:16;;;;;;;;;;;;;;;24.05;67.81;100212.72;7403277;19;1722;-53
2023/07/03 00:18:44;;;;;;;;;;;;;;;24.07;67.65;100210.69;7404006;19;1018;-53
2023/07/03 00:21:12;;;;;;;;;;;;;;;24.09;67.90;100197.81;7402853;19;1806;-53
2023/07/03 00:23:40;;;;;;;;;;;;;;;24.06;67.48;100199.03;7399802;19;1439;-53
2023/07/03 00:26:09;;;;;;;;;;;;;;;24.09;67.74;100205.94;7401369;19;1857;-53
2023/07/03 00:28:37;;;;;;;;;;;;;;;24.07;67.61;100206.09;7402967;19;1121;-53
2023/07/03 00:31:08;;;;;;;;;;;;;;;24.09;67.58;100214.88;7400675;19;1826;-53
2023/07/03 00:33:36;;;;;;;;;;;;;;;24.13;67.37;100213.50;7399202;19;1809;-53
2023/07/03 00:36:04;;;;;;;;;;;;;;;24.16;67.39;100210.41;7399477;19;1524;-53
2023/07/03 00:38:33;;;;;;;;;;;;;;;24.13;67.42;100215.34;7402918;19;1942;-53
2023/07/03 00:41:01;;;;;;;;;;;;;;;24.17;67.54;100203.16;7403707;19;1036;-53
2023/07/03 00:43:32;;;;;;;;;;;;;;;24.29;66.92;100200.84;7403108;19;1006;-53
2023/07/03 00:46:01;;;;;;;;;;;;;;;24.25;67.38;100213.03;7401900;19;1869;-52
2023/07/03 00:48:32;;;;;;;;;;;;;;;24.10;67.70;100208.44;7400344;19;1537;-53
2023/07/03 00:51:00;;;;;;;;;;;;;;;24.11;67.63;100220.09;7401520;19;1576;-53
2023/07/03 00:53:28;;;;;;;;;;;;;;;24.03;67.58;100218.28;7401652;19;1493;-53
2023/07/03 00:55:57;;;;;;;;;;;;;;;24.05;67.66;100208.16;7401941;19;1044;-53
2023/07/03 00:58:25;;;;;;;;;;;;;;;24.04;67.64;100214.59;7398918;19;1600;-53
2023/07/03 01:00:56;;;;;;;;;;;;;;;24.08;67.67;100218.59;7399385;19;1374;-53
2023/07/03 01:03:26;;;;;;;;;;;;;;;24.00;67.65;100222.22;7399577;19;1366;-53
2023/07/03 01:05:58;;;;;;;;;;;;;;;24.01;67.64;100221.22;7400953;19;1858;-53
2023/07/03 01:08:27;;;;;;;;;;;;;;;24.01;68.11;100220.34;7401269;19;1759;-53
2023/07/03 01:10:56;;;;;;;;;;;;;;;24.04;67.84;100213.75;7401805;19;1718;-53
2023/07/03 01:13:25;;;;;;;;;;;;;;;24.04;67.62;100227.25;7400270;19;1493;-53
2023/07/03 01:15:53;;;;;;;;;;;;;;;24.04;67.84;100220.00;7402154;19;1002;-53
2023/07/03 01:18:22;;;;;;;;;;;;;;;24.03;67.96;100223.69;7400758;19;1615;-53
2023/07/03 01:20:54;;;;;;;;;;;;;;;23.99;68.06;100223.25;7400343;19;1544;-53
2023/07/03 01:23:30;;;;;;;;;;;;;;;24.01;67.62;100232.00;7396991;19;2237;-53
2023/07/03 01:26:01;;;;;;;;;;;;;;;24.09;67.79;100244.56;7400684;19;1860;-53
2023/07/03 01:28:30;;;;;;;;;;;;;;;24.09;67.54;100220.25;7398334;19;1498;-53
2023/07/03 01:30:59;;;;;;;;;;;;;;;24.10;67.59;100224.66;7399054;19;1480;-53
2023/07/03 01:33:31;;;;;;;;;;;;;;;24.13;67.34;100227.00;7400537;19;1817;-54
2023/07/03 01:36:00;;;;;;;;;;;;;;;24.11;67.77;100233.59;7401103;19;1813;-55
2023/07/03 01:38:29;;;;;;;;;;;;;;;24.09;67.65;100209.47;7399874;19;1508;-53
2023/07/03 01:41:01;;;;;;;;;;;;;;;24.08;67.67;100224.00;7400885;19;1102;-53
2023/07/03 01:43:30;;;;;;;;;;;;;;;24.14;67.59;100230.53;7400695;19;1106;-53
2023/07/03 01:45:58;;;;;;;;;;;;;;;24.09;67.60;100238.34;7396820;19;1846;-53
2023/07/03 01:48:27;;;;;;;;;;;;;;;24.07;67.81;100221.47;7399094;19;1861;-53
2023/07/03 01:50:55;;;;;;;;;;;;;;;24.09;67.68;100228.38;7398385;19;1497;-53
2023/07/03 01:53:25;;;;;;;;;;;;;;;24.12;67.55;100225.31;7399144;19;1835;-53
2023/07/03 01:55:57;;;;;;;;;;;;;;;24.04;67.49;100227.25;7397237;19;1723;-53
2023/07/03 01:58:32;;;;;;;;;;;;;;;24.11;67.69;100222.78;7399760;19;1473;-53
2023/07/03 02:01:03;;;;;;;;;;;;;;;24.06;67.41;100230.63;7399521;19;1390;-53
2023/07/03 02:03:32;;;;;;;;;;;;;;;24.10;67.61;100227.38;7397861;19;1782;-53
2023/07/03 02:06:03;;;;;;;;;;;;;;;24.06;67.68;100220.66;7400533;19;1852;-53
2023/07/03 02:08:33;;;;;;;;;;;;;;;24.07;67.62;100241.22;7399374;19;1548;-53
2023/07/03 02:11:01;;;;;;;;;;;;;;;24.05;67.62;100248.66;7399334;19;1466;-53
2023/07/03 02:13:32;;;;;;;;;;;;;;;24.09;67.64;100235.66;7395949;19;1958;-53
2023/07/03 02:16:01;;;;;;;;;;;;;;;24.01;67.74;100233.84;7399226;19;2083;-53
2023/07/03 02:18:29;;;;;;;;;;;;;;;24.07;67.61;100246.63;7399518;19;1751;-53
2023/07/03 02:20:57;;;;;;;;;;;;;;;24.04;67.76;100241.59;7397975;19;922;-53
2023/07/03 02:23:25;;;;;;;;;;;;;;;24.06;67.59;100244.97;7395419;19;1557;-53
2023/07/03 02:25:54;;;;;;;;;;;;;;;24.08;67.47;100248.31;7398296;19;1847;-53
2023/07/03 02:28:22;;;;;;;;;;;;;;;24.09;67.77;100255.38;7399761;19;945;-57
2023/07/03 02:30:53;;;;;;;;;;;;;;;24.05;67.69;100256.78;7395651;19;1873;-53
2023/07/03 02:33:21;;;;;;;;;;;;;;;24.04;67.76;100265.91;7398062;19;1390;-53
2023/07/03 02:35:49;;;;;;;;;;;;;;;24.06;67.74;100271.97;7398444;19;1730;-53
2023/07/03 02:38:18;;;;;;;;;;;;;;;24.04;67.68;100273.19;7399439;19;1045;-52
2023/07/03 02:40:46;;;;;;;;;;;;;;;24.06;67.62;100265.72;7398722;19;1861;-53
2023/07/03 02:43:14;;;;;;;;;;;;;;;24.07;67.58;100273.63;7398347;19;1878;-53
2023/07/03 02:45:43;;;;;;;;;;;;;;;24.09;67.68;100278.88;7397703;19;1928;-53
2023/07/03 02:48:15;;;;;;;;;;;;;;;24.08;67.27;100269.09;7396823;19;1895;-53
2023/07/03 02:50:43;;;;;;;;;;;;;;;24.10;67.44;100284.09;7397971;19;1821;-53
2023/07/03 02:53:12;;;;;;;;;;;;;;;24.09;67.63;100278.88;7396230;19;1445;-53
2023/07/03 02:55:40;;;;;;;;;;;;;;;24.04;67.62;100276.72;7397892;19;1055;-53
2023/07/03 02:58:08;;;;;;;;;;;;;;;24.05;67.50;100280.25;7394464;19;1845;-53
2023/07/03 03:00:37;;;;;;;;;;;;;;;24.07;67.60;100287.13;7397524;19;1410;-53
2023/07/03 03:03:05;;;;;;;;;;;;;;;24.04;67.76;100286.69;7395507;19;1403;-53
2023/07/03 03:05:36;;;;;;;;;;;;;;;24.07;67.46;100291.72;7397976;19;1798;-53
2023/07/03 03:08:05;;;;;;;;;;;;;;;24.06;67.54;100288.19;7395721;19;1852;-53
2023/07/03 03:10:33;;;;;;;;;;;;;;;24.04;67.60;100301.03;7398506;19;958;-52
2023/07/03 03:13:01;;;;;;;;;;;;;;;24.04;67.41;100292.91;7397843;19;1591;-52
2023/07/03 03:15:30;;;;;;;;;;;;;;;24.00;67.73;100288.91;7397065;19;1944;-53
2023/07/03 03:17:58;;;;;;;;;;;;;;;24.01;67.64;100288.72;7396423;19;1861;-53
2023/07/03 03:20:26;;;;;;;;;;;;;;;24.03;67.69;100283.13;7397397;19;1747;-53
2023/07/03 03:22:57;;;;;;;;;;;;;;;23.70;67.49;100242.84;7395191;19;3050;-53
2023/07/03 03:25:26;;;;;;;;;;;;;;;24.01;67.77;100294.13;7397927;19;953;-53
2023/07/03 03:27:54;;;;;;;;;;;;;;;24.00;67.94;100297.84;7395770;19;1889;-53
2023/07/03 03:30:24;;;;;;;;;;;;;;;23.95;67.78;100291.28;7393242;19;1592;-53
2023/07/03 03:32:52;;;;;;;;;;;;;;;23.94;67.78;100298.56;7396940;19;1082;-53
2023/07/03 03:35:20;;;;;;;;;;;;;;;23.97;67.81;100300.03;7396028;19;1838;-53
2023/07/03 03:37:49;;;;;;;;;;;;;;;23.93;67.87;100299.56;7396033;19;1458;-53
2023/07/03 03:40:20;;;;;;;;;;;;;;;23.99;67.55;100312.38;7396345;19;1838;-53
2023/07/03 03:42:48;;;;;;;;;;;;;;;24.02;67.76;100308.47;7397112;19;1743;-53
2023/07/03 03:45:16;;;;;;;;;;;;;;;23.98;67.52;100307.16;7395738;19;1829;-53
2023/07/03 03:47:45;;;;;;;;;;;;;;;24.02;67.71;100313.88;7393475;19;1864;-53
2023/07/03 03:50:13;;;;;;;;;;;;;;;24.01;67.50;100313.03;7395562;19;1651;-53
2023/07/03 03:52:42;;;;;;;;;;;;;;;23.99;67.44;100311.50;7396090;19;1014;-53
2023/07/03 03:55:11;;;;;;;;;;;;;;;24.04;67.58;100311.81;7396041;19;1426;-53
2023/07/03 03:57:41;;;;;;;;;;;;;;;24.06;67.48;100319.75;7393920;19;1486;-53
2023/07/03 04:00:15;;;;;;;;;;;;;;;24.03;67.54;100312.84;7394356;19;1730;-53
2023/07/03 04:02:43;;;;;;;;;;;;;;;24.08;67.65;100313.16;7392338;19;1708;-53
2023/07/03 04:05:12;;;;;;;;;;;;;;;24.01;67.59;100326.53;7394297;19;1252;-53
2023/07/03 04:07:40;;;;;;;;;;;;;;;24.02;67.75;100322.81;7394560;19;1955;-53
2023/07/03 04:10:09;;;;;;;;;;;;;;;24.00;67.66;100311.34;7401726;19;1950;-54
2023/07/03 04:12:37;;;;;;;;;;;;;;;23.98;67.79;100328.75;7401990;19;1949;-53
2023/07/03 04:15:09;;;;;;;;;;;;;;;23.94;67.62;100327.44;7403419;19;1798;-53
2023/07/03 04:17:37;;;;;;;;;;;;;;;23.91;67.87;100320.50;7402311;19;1794;-53
2023/07/03 04:20:10;;;;;;;;;;;;;;;23.92;68.20;100319.50;7402237;19;1395;-54
2023/07/03 04:22:38;;;;;;;;;;;;;;;23.94;67.92;100316.63;7403003;19;1024;-72
2023/07/03 04:25:07;;;;;;;;;;;;;;;23.95;68.05;100318.28;7400842;19;1924;-70
2023/07/03 04:27:35;;;;;;;;;;;;;;;23.93;68.25;100334.66;7401124;19;1847;-53
2023/07/03 04:30:04;;;;;;;;;;;;;;;23.96;67.98;100328.09;7403796;19;1051;-54
2023/07/03 04:32:36;;;;;;;;;;;;;;;23.99;67.95;100339.38;7402958;19;1878;-53
2023/07/03 04:35:06;;;;;;;;;;;;;;;24.04;67.82;100332.59;7402547;19;2211;-54
2023/07/03 04:37:34;;;;;;;;;;;;;;;24.06;67.58;100334.09;7402140;19;1776;-53
2023/07/03 04:40:03;;;;;;;;;;;;;;;24.10;67.83;100342.69;7402055;19;1572;-53
2023/07/03 04:42:32;;;;;;;;;;;;;;;24.10;67.33;100332.72;7402396;19;1394;-53
2023/07/03 04:45:01;;;;;;;;;;;;;;;24.09;67.64;100338.28;7401996;19;1655;-53
2023/07/03 04:47:30;;;;;;;;;;;;;;;24.11;67.77;100347.88;7399216;19;1856;-53
2023/07/03 04:50:01;;;;;;;;;;;;;;;24.07;67.75;100338.47;7397836;19;1747;-53
2023/07/03 04:52:29;;;;;;;;;;;;;;;24.07;67.81;100340.34;7400790;19;1105;-53
2023/07/03 04:54:58;;;;;;;;;;;;;;;24.06;67.70;100331.41;7401797;19;1596;-52
2023/07/03 04:57:26;;;;;;;;;;;;;;;24.05;67.85;100339.66;7400741;19;1834;-53
2023/07/03 04:59:54;;;;;;;;;;;;;;;24.11;67.71;100339.78;7402341;19;1761;-53
2023/07/03 05:02:23;;;;;;;;;;;;;;;24.04;67.97;100352.34;7400364;19;1473;-53
2023/07/03 05:04:52;;;;;;;;;;;;;;;24.03;67.81;100350.66;7398672;19;1387;-53
2023/07/03 05:07:24;;;;;;;;;;;;;;;24.05;68.02;100355.88;7399206;19;1857;-53
2023/07/03 05:09:53;;;;;;;;;;;;;;;24.01;67.95;100352.69;7400008;19;1814;-53
2023/07/03 05:12:21;;;;;;;;;;;;;;;23.95;68.18;100345.31;7400728;19;1461;-53
2023/07/03 05:14:50;;;;;;;;;;;;;;;24.01;68.37;100356.25;7401350;19;1806;-53
2023/07/03 05:17:18;;;;;;;;;;;;;;;23.94;68.38;100352.56;7400329;19;1027;-53
2023/07/03 05:19:47;;;;;;;;;;;;;;;24.00;68.22;100354.56;7399486;19;1518;-53
2023/07/03 05:22:15;;;;;;;;;;;;;;;23.98;68.23;100355.75;7400626;19;1734;-53
2023/07/03 05:24:46;;;;;;;;;;;;;;;23.97;68.35;100367.56;7399629;19;1695;-53
2023/07/03 05:27:14;;;;;;;;;;;;;;;23.94;68.47;100355.28;7398553;19;1846;-53
2023/07/03 05:29:43;;;;;;;;;;;;;;;23.95;68.22;100361.50;7399361;19;1282;-53
2023/07/03 05:32:11;;;;;;;;;;;;;;;23.93;68.46;100353.56;7399570;19;1513;-53
2023/07/03 05:34:40;;;;;;;;;;;;;;;23.95;68.20;100366.91;7400067;19;1386;-53
2023/07/03 05:37:08;;;;;;;;;;;;;;;24.00;68.35;100364.53;7399422;19;1746;-53
2023/07/03 05:39:37;;;;;;;;;;;;;;;24.03;68.17;100377.66;7398821;19;1731;-53
2023/07/03 05:42:08;;;;;;;;;;;;;;;24.07;67.88;100365.47;7398889;19;1656;-53
2023/07/03 05:44:36;;;;;;;;;;;;;;;24.10;67.92;100367.84;7398131;19;1885;-53
2023/07/03 05:47:05;;;;;;;;;;;;;;;24.11;67.78;100366.78;7399439;19;1855;-53
2023/07/03 05:49:33;;;;;;;;;;;;;;;24.13;67.90;100356.69;7399886;19;1726;-53
2023/07/03 05:52:01;;;;;;;;;;;;;;;24.14;67.86;100360.22;7400068;19;1031;-53
2023/07/03 05:54:30;;;;;;;;;;;;;;;24.16;67.54;100353.59;7398265;19;1521;-53
2023/07/03 05:56:59;;;;;;;;;;;;;;;23.72;67.67;100313.69;7398434;19;1727;-53
2023/07/03 05:59:30;;;;;;;;;;;;;;;24.21;67.60;100374.66;7398063;19;1370;-53
2023/07/03 06:01:58;;;;;;;;;;;;;;;24.22;67.65;100373.66;7398435;19;2037;-52
2023/07/03 06:04:27;;;;;;;;;;;;;;;24.25;67.22;100367.06;7396679;19;1699;-53
2023/07/03 06:06:56;;;;;;;;;;;;;;;24.29;67.26;100363.84;7399139;19;1422;-53
2023/07/03 06:09:24;;;;;;;;;;;;;;;24.28;67.31;100385.63;7396878;19;1840;-53
2023/07/03 06:11:52;;;;;;;;;;;;;;;24.30;67.38;100370.06;7398669;19;1501;-53
2023/07/03 06:14:21;;;;;;;;;;;;;;;24.26;67.63;100374.16;7398874;19;1743;-53
2023/07/03 06:16:53;;;;;;;;;;;;;;;24.23;67.75;100375.31;7398861;19;947;-53
2023/07/03 06:19:23;;;;;;;;;;;;;;;24.26;67.58;100368.75;7400182;19;1041;-53
2023/07/03 06:21:51;;;;;;;;;;;;;;;24.27;67.49;100365.00;7398579;19;1850;-53
2023/07/03 06:24:20;;;;;;;;;;;;;;;24.24;67.58;100387.00;7397086;19;1537;-54
2023/07/03 06:26:48;;;;;;;;;;;;;;;24.28;67.51;100372.09;7397733;19;1768;-53
2023/07/03 06:29:16;;;;;;;;;;;;;;;24.28;67.58;100378.34;7397210;19;1851;-53
2023/07/03 06:31:45;;;;;;;;;;;;;;;24.27;67.44;100375.81;7395967;19;1893;-53
2023/07/03 06:34:15;;;;;;;;;;;;;;;24.30;67.19;100370.91;7397992;19;1943;-53
2023/07/03 06:36:44;;;;;;;;;;;;;;;24.21;67.55;100377.38;7396811;19;1413;-53
2023/07/03 06:39:12;;;;;;;;;;;;;;;24.16;68.18;100375.22;7398088;19;1763;-53
2023/07/03 06:41:41;;;;;;;;;;;;;;;24.15;67.72;100378.09;7397750;19;1859;-53
2023/07/03 06:44:13;;;;;;;;;;;;;;;24.14;67.88;100390.75;7398163;19;1791;-53
2023/07/03 06:46:41;;;;;;;;;;;;;;;24.18;67.97;100388.56;7397130;19;1738;-53
2023/07/03 06:49:10;;;;;;;;;;;;;;;24.18;67.64;100372.34;7395932;19;1857;-53
2023/07/03 06:51:41;;;;;;;;;;;;;;;24.25;67.74;100388.66;7399108;19;991;-53
2023/07/03 06:54:09;;;;;;;;;;;;;;;24.30;67.65;100387.13;7395772;19;1462;-53
2023/07/03 06:56:38;;;;;;;;;;;;;;;24.30;67.85;100383.56;7397135;19;1231;-53
2023/07/03 06:59:06;;;;;;;;;;;;;;;24.33;67.51;100391.31;7396559;19;1426;-53
2023/07/03 07:01:35;;;;;;;;;;;;;;;24.33;67.76;100383.19;7398000;19;1813;-53
2023/07/03 07:04:03;;;;;;;;;;;;;;;24.32;67.67;100395.03;7395571;19;1695;-53
2023/07/03 07:06:32;;;;;;;;;;;;;;;24.31;67.40;100387.94;7397077;19;1818;-54
2023/07/03 07:09:03;;;;;;;;;;;;;;;24.28;67.62;100381.06;7396116;19;1855;-53
2023/07/03 07:11:32;;;;;;;;;;;;;;;24.30;67.67;100397.09;7398593;19;1039;-53
2023/07/03 07:14:01;;;;;;;;;;;;;;;24.27;67.69;100408.25;7398960;19;1037;-53
2023/07/03 07:16:31;;;;;;;;;;;;;;;24.17;67.80;100406.63;7397275;19;1867;-53
2023/07/03 07:19:00;;;;;;;;;;;;;;;24.16;68.06;100401.41;7396569;19;1502;-53
2023/07/03 07:21:29;;;;;;;;;;;;;;;24.13;67.98;100408.00;7396663;19;1431;-53
2023/07/03 07:23:58;;;;;;;;;;;;;;;24.14;68.27;100398.88;7397397;19;1971;-53
2023/07/03 07:26:32;;;;;;;;;;;;;;;24.15;68.37;100405.97;7394842;19;1477;-53
2023/07/03 07:29:00;;;;;;;;;;;;;;;24.14;68.22;100409.69;7396341;19;1861;-53
2023/07/03 07:31:29;;;;;;;;;;;;;;;24.28;67.89;100408.06;7394891;19;1918;-53
2023/07/03 07:33:58;;;;;;;;;;;;;;;24.28;67.69;100407.25;7393670;19;1469;-53
2023/07/03 07:36:27;;;;;;;;;;;;;;;24.29;67.66;100400.78;7396749;19;1961;-53
2023/07/03 07:38:56;;;;;;;;;;;;;;;24.30;67.66;100407.91;7395409;19;1824;-53
2023/07/03 07:41:25;;;;;;;;;;;;;;;24.27;67.75;100397.44;7395987;19;1430;-53
2023/07/03 07:43:58;;;;;;;;;;;;;;;24.30;67.67;100405.19;7398417;19;1382;-53
2023/07/03 07:46:29;;;;;;;;;;;;;;;24.30;67.45;100391.69;7403889;19;1779;-53
2023/07/03 07:48:58;;;;;;;;;;;;;;;24.34;67.71;100398.41;7403248;19;1867;-53
2023/07/03 07:51:26;;;;;;;;;;;;;;;24.38;67.60;100399.72;7403722;19;1489;-53
2023/07/03 07:53:55;;;;;;;;;;;;;;;24.37;67.46;100414.25;7401337;19;1925;-53
2023/07/03 07:56:24;;;;;;;;;;;;;;;24.38;67.38;100407.84;7402061;19;1833;-53
2023/07/03 07:58:52;;;;;;;;;;;;;;;24.35;67.22;100405.47;7403046;19;1370;-53
2023/07/03 08:01:23;;;;;;;;;;;;;;;24.37;67.47;100393.50;7402638;19;1473;-53
2023/07/03 08:03:52;;;;;;;;;;;;;;;24.37;67.26;100409.72;7399140;19;2223;-53
2023/07/03 08:06:20;;;;;;;;;;;;;;;24.40;67.07;100403.09;7404795;19;954;-53
2023/07/03 08:08:48;;;;;;;;;;;;;;;24.36;67.29;100418.81;7400810;19;1866;-53
2023/07/03 08:11:17;;;;;;;;;;;;;;;24.43;67.37;100400.00;7402709;19;1814;-53
2023/07/03 08:13:45;;;;;;;;;;;;;;;24.42;67.10;100422.66;7402444;19;1336;-53
2023/07/03 08:16:15;;;;;;;;;;;;;;;24.39;67.50;100410.38;7401874;19;1718;-53
2023/07/03 08:18:46;;;;;;;;;;;;;;;24.41;67.40;100420.97;7401674;19;1300;-53
2023/07/03 08:21:15;;;;;;;;;;;;;;;24.44;67.13;100420.63;7401250;19;1969;-53
2023/07/03 08:23:43;;;;;;;;;;;;;;;24.48;67.36;100421.94;7403203;19;1814;-53
2023/07/03 08:26:19;;;;;;;;;;;;;;;24.42;67.50;100420.81;7402975;19;1054;-53
2023/07/03 08:28:47;;;;;;;;;;;;;;;24.42;67.32;100431.63;7398752;19;1886;-53
2023/07/03 08:31:15;;;;;;;;;;;;;;;24.42;67.24;100422.66;7401076;19;1718;-53
2023/07/03 08:33:46;;;;;;;;;;;;;;;24.43;67.27;100418.94;7403058;19;1982;-53
2023/07/03 08:36:14;;;;;;;;;;;;;;;24.41;67.25;100410.16;7401704;19;1010;-53
2023/07/03 08:38:43;;;;;;;;;;;;;;;24.39;67.37;100426.59;7399563;19;2198;-53
2023/07/03 08:41:13;;;;;;;;;;;;;;;24.43;67.50;100432.44;7401043;19;1741;-53
2023/07/03 08:43:43;;;;;;;;;;;;;;;24.42;67.43;100423.50;7402394;19;1719;-53
2023/07/03 08:46:14;;;;;;;;;;;;;;;24.45;67.43;100427.69;7403105;19;1024;-53
2023/07/03 08:48:43;;;;;;;;;;;;;;;24.45;67.28;100433.09;7398907;19;1859;-53
2023/07/03 08:51:15;;;;;;;;;;;;;;;24.48;67.16;100434.63;7400151;19;1495;-53
2023/07/03 08:53:44;;;;;;;;;;;;;;;24.50;67.32;100436.16;7401395;19;1457;-53
2023/07/03 08:56:16;;;;;;;;;;;;;;;24.45;67.46;100435.81;7399859;19;1429;-53
2023/07/03 08:58:45;;;;;;;;;;;;;;;24.48;67.33;100435.47;7401382;19;1394;-53
2023/07/03 09:01:18;;;;;;;;;;;;;;;24.50;67.49;100446.97;7400591;19;1737;-53
2023/07/03 09:03:52;;;;;;;;;;;;;;;24.41;67.28;100429.94;7401413;19;1949;-53
2023/07/03 09:06:25;;;;;;;;;;;;;;;24.46;67.19;100433.97;7401968;19;1097;-53
2023/07/03 09:08:59;;;;;;;;;;;;;;;24.45;67.06;100430.41;7400202;19;1858;-53
2023/07/03 09:11:31;;;;;;;;;;;;;;;24.48;67.39;100440.03;7400896;19;1615;-53
2023/07/03 09:14:02;;;;;;;;;;;;;;;24.48;67.19;100438.16;7400862;19;1522;-53
2023/07/03 09:16:31;;;;;;;;;;;;;;;24.47;67.26;100436.50;7400902;19;1588;-53
2023/07/03 09:19:02;;;;;;;;;;;;;;;24.43;67.25;100424.34;7400506;19;1818;-53
2023/07/03 09:21:33;;;;;;;;;;;;;;;24.48;67.15;100432.75;7400636;19;1743;-54
2023/07/03 09:24:03;;;;;;;;;;;;;;;24.50;67.30;100419.06;7400518;19;1734;-53
2023/07/03 09:26:36;;;;;;;;;;;;;;;24.46;67.21;100424.00;7399582;19;1394;-53
2023/07/03 09:29:05;;;;;;;;;;;;;;;24.52;67.28;100427.88;7398939;19;1866;-53
2023/07/03 09:31:34;;;;;;;;;;;;;;;24.49;67.25;100411.97;7399525;19;1564;-53
2023/07/03 09:34:02;;;;;;;;;;;;;;;24.52;67.38;100422.47;7400226;19;1804;-53
2023/07/03 09:36:37;;;;;;;;;;;;;;;24.48;67.20;100426.53;7401042;19;1794;-53
2023/07/03 09:39:10;;;;;;;;;;;;;;;24.46;67.29;100410.47;7401050;19;1754;-54
2023/07/03 09:41:39;;;;;;;;;;;;;;;24.53;67.41;100422.28;7399558;19;1794;-53
2023/07/03 09:44:12;;;;;;;;;;;;;;;24.49;67.28;100418.25;7399953;19;1679;-53
2023/07/03 09:46:41;;;;;;;;;;;;;;;24.53;67.27;100429.53;7400378;19;1486;-53
2023/07/03 09:49:10;;;;;;;;;;;;;;;24.51;66.95;100420.78;7399557;19;1841;-54
2023/07/03 09:51:41;;;;;;;;;;;;;;;24.44;67.30;100406.28;7400314;19;1031;-53
2023/07/03 09:54:20;;;;;;;;;;;;;;;24.50;67.25;100414.53;7397507;19;1865;-53
2023/07/03 09:56:49;;;;;;;;;;;;;;;24.49;67.18;100406.56;7399158;19;1022;-53
2023/07/03 09:59:19;;;;;;;;;;;;;;;24.48;67.12;100410.31;7399948;19;1926;-53
2023/07/03 10:01:48;;;;;;;;;;;;;;;24.43;67.47;100413.53;7399197;19;1880;-53
2023/07/03 10:04:18;;;;;;;;;;;;;;;24.42;67.39;100401.88;7396853;19;1813;-53
2023/07/03 10:07:01;;;;;;;;;;;;;;;24.50;67.33;100419.06;7396492;19;1457;-53
2023/07/03 10:09:31;;;;;;;;;;;;;;;24.44;67.61;100403.56;7398364;19;1863;-53
2023/07/03 10:12:02;;;;;;;;;;;;;;;24.41;67.66;100402.06;7398456;19;1759;-53
2023/07/03 10:14:35;;;;;;;;;;;;;;;24.41;67.29;100391.25;7399656;19;1394;-53
2023/07/03 10:17:12;;;;;;;;;;;;;;;24.42;67.31;100401.88;7397662;19;1807;-53
2023/07/03 10:19:41;;;;;;;;;;;;;;;24.43;67.58;100402.72;7399057;19;1485;-53
2023/07/03 10:22:12;;;;;;;;;;;;;;;24.47;67.20;100409.47;7399831;19;1024;-53
2023/07/03 10:24:40;;;;;;;;;;;;;;;24.46;67.09;100415.88;7398479;19;1939;-53
2023/07/03 10:27:14;;;;;;;;;;;;;;;24.46;67.31;100406.94;7398753;19;1410;-53
2023/07/03 10:29:44;;;;;;;;;;;;;;;24.45;67.25;100400.66;7397000;19;1813;-53
2023/07/03 10:32:14;;;;;;;;;;;;;;;24.47;67.18;100406.78;7398144;19;1751;-53
2023/07/03 10:34:47;;;;;;;;;;;;;;;24.44;67.48;100403.56;7397090;19;1494;-53
2023/07/03 10:37:20;;;;;;;;;;;;;;;24.46;67.39;100404.25;7396974;19;1723;-53
2023/07/03 10:39:53;;;;;;;;;;;;;;;24.43;67.18;100391.91;7397902;19;1893;-53
2023/07/03 10:42:23;;;;;;;;;;;;;;;24.48;67.46;100394.09;7396673;19;1469;-53
2023/07/03 10:44:55;;;;;;;;;;;;;;;24.42;67.44;100395.66;7397212;19;1441;-53
2023/07/03 10:47:25;;;;;;;;;;;;;;;24.47;67.62;100408.59;7396996;19;1399;-53
2023/07/03 10:49:54;;;;;;;;;;;;;;;24.41;67.50;100404.75;7395755;19;1847;-53
2023/07/03 10:52:30;;;;;;;;;;;;;;;24.39;67.67;100412.19;7398375;19;1093;-53
2023/07/03 10:55:04;;;;;;;;;;;;;;;24.40;67.37;100409.34;7397598;19;1892;-53
2023/07/03 10:57:36;;;;;;;;;;;;;;;24.42;67.52;100401.06;7394746;19;1854;-53
2023/07/03 11:00:08;;;;;;;;;;;;;;;24.39;67.39;100390.59;7399274;19;1664;-53
2023/07/03 11:02:41;;;;;;;;;;;;;;;24.36;67.68;100405.31;7397258;19;988;-53
2023/07/03 11:05:14;;;;;;;;;;;;;;;24.37;67.70;100400.72;7396643;19;1246;-53
2023/07/03 11:07:49;;;;;;;;;;;;;;;24.34;67.57;100409.22;7397308;19;1509;-53
2023/07/03 11:10:20;;;;;;;;;;;;;;;24.32;67.57;100397.75;7396407;19;1859;-53
2023/07/03 11:12:52;;;;;;;;;;;;;;;24.37;67.60;100404.31;7396881;19;1913;-53
2023/07/03 11:15:25;;;;;;;;;;;;;;;24.36;67.58;100399.06;7396877;19;1501;-53
2023/07/03 11:17:58;;;;;;;;;;;;;;;24.39;67.65;100412.19;7399812;19;1394;-53
2023/07/03 11:20:30;;;;;;;;;;;;;;;24.36;67.61;100399.91;7404712;19;1672;-53
2023/07/03 11:23:08;;;;;;;;;;;;;;;24.34;67.78;100393.84;7404409;19;2175;-54
2023/07/03 11:25:39;;;;;;;;;;;;;;;24.38;67.74;100405.13;7404430;19;1472;-53
2023/07/03 11:28:11;;;;;;;;;;;;;;;24.38;67.78;100395.16;7405497;19;1022;-53
2023/07/03 11:30:42;;;;;;;;;;;;;;;24.38;67.65;100384.34;7400389;19;1857;-53
2023/07/03 11:33:13;;;;;;;;;;;;;;;24.40;67.41;100386.88;7404020;19;1334;-53
2023/07/03 11:35:52;;;;;;;;;;;;;;;24.40;67.83;100400.38;7405243;19;979;-53
2023/07/03 11:38:23;;;;;;;;;;;;;;;24.39;67.59;100394.16;7404889;19;977;-53
2023/07/03 11:41:13;;;;;;;;;;;;;;;24.38;67.38;100387.03;7405466;19;1006;-53
2023/07/03 11:43:45;;;;;;;;;;;;;;;24.41;67.53;100383.13;7404270;19;1636;-53
2023/07/03 11:46:24;;;;;;;;;;;;;;;24.42;67.57;100385.66;7405373;19;1129;-54
2023/07/03 11:48:56;;;;;;;;;;;;;;;24.43;67.51;100386.50;7404919;19;1014;-53
2023/07/03 11:51:35;;;;;;;;;;;;;;;24.42;67.46;100384.84;7401162;19;1898;-53
2023/07/03 11:54:16;;;;;;;;;;;;;;;24.42;67.38;100385.66;7402193;19;1457;-53
2023/07/03 11:56:50;;;;;;;;;;;;;;;24.40;67.75;100386.88;7402695;19;1339;-53
2023/07/03 11:59:30;;;;;;;;;;;;;;;24.40;67.60;100393.13;7402328;19;1751;-54
2023/07/03 12:02:13;;;;;;;;;;;;;;;24.38;67.74;100391.63;7401943;19;1917;-53
2023/07/03 12:04:51;;;;;;;;;;;;;;;24.37;67.80;100376.41;7399485;19;1831;-53
2023/07/03 12:07:35;;;;;;;;;;;;;;;24.32;67.97;100365.31;7403308;19;1477;-53
2023/07/03 12:10:18;;;;;;;;;;;;;;;24.31;68.18;100367.19;7399829;19;1855;-53
2023/07/03 12:13:09;;;;;;;;;;;;;;;24.28;68.08;100372.94;7401079;19;1971;-53
2023/07/03 12:15:40;;;;;;;;;;;;;;;24.28;68.06;100374.81;7401456;19;1417;-54
2023/07/03 12:18:09;;;;;;;;;;;;;;;24.28;68.00;100375.66;7401063;19;1446;-53
2023/07/03 12:20:37;;;;;;;;;;;;;;;24.25;68.28;100362.47;7403294;19;1754;-53
2023/07/03 12:23:05;;;;;;;;;;;;;;;24.24;68.11;100362.69;7402882;19;1810;-55
2023/07/03 12:25:34;;;;;;;;;;;;;;;24.26;68.01;100360.63;7403011;19;1808;-53
2023/07/03 12:28:10;;;;;;;;;;;;;;;24.25;67.93;100358.94;7404205;19;946;-53
2023/07/03 12:30:41;;;;;;;;;;;;;;;24.27;68.04;100356.91;7395229;19;1876;-53
2023/07/03 12:33:10;;;;;;;;;;;;;;;24.25;68.25;100353.53;7401708;19;1763;-53
2023/07/03 12:35:38;;;;;;;;;;;;;;;24.25;68.19;100356.25;7403400;19;1324;-53
2023/07/03 12:38:08;;;;;;;;;;;;;;;24.25;68.06;100350.84;7402573;19;1924;-53
2023/07/03 12:40:42;;;;;;;;;;;;;;;24.24;68.22;100343.78;7402223;19;1557;-53
2023/07/03 12:43:12;;;;;;;;;;;;;;;24.23;68.19;100348.31;7401716;19;1885;-53
2023/07/03 12:45:44;;;;;;;;;;;;;;;24.22;68.28;100355.59;7401976;19;1855;-53
2023/07/03 12:48:13;;;;;;;;;;;;;;;24.25;68.21;100351.66;7402580;19;1731;-53
2023/07/03 12:50:48;;;;;;;;;;;;;;;24.29;68.22;100353.03;7400198;19;1837;-54
2023/07/03 12:53:17;;;;;;;;;;;;;;;24.27;68.22;100338.00;7401095;19;1747;-54
2023/07/03 12:55:47;;;;;;;;;;;;;;;24.27;68.15;100341.53;7402727;19;1020;-53
2023/07/03 12:58:15;;;;;;;;;;;;;;;24.30;68.09;100338.47;7398895;19;1592;-53
2023/07/03 13:00:46;;;;;;;;;;;;;;;24.30;68.09;100334.94;7402950;19;983;-53
2023/07/03 13:03:16;;;;;;;;;;;;;;;24.32;67.90;100330.19;7400230;19;1529;-53